Pagrindinis puslapis
METAR-TAF:

METAR-TAF

Oro uostai :

San Andresas, Kolumbija

platuma: 12-35N, ilguma: 081-43W, Aukštis: 1 m

Dabartinis oras

Ataskaita buvo paskelbta 12 minutes, ne 16:00 UTC
Vėjas 5 kt iš Šiaurės/Šiaurės Rytų, svyruoja nuo Šiaurės/Šiaurės Vakarų ir Šiaurės Rytų
Temperatūra 31°C
Drėgmė 75%
Slėgis 1014 hPa
Matomumas 10 km arba daugiau
Mažai debesys ne aukštis 1800 ft

METAR: SKSP 171600Z 03005KT 330V050 9999 FEW018 31/26 A2994

Laikas: 11:12 (16:12 UTC)

Prognozė

Ataskaita buvo paskelbta 5 valandos ir 42 minutes, ne 10:30 UTC
Prognozė galioja nuo 17 metu 12 UTC su 18 metu 12 UTC
Vėjas 7 kt iš Rytų/Šiaurės Rytų
Matomumas 10 km arba daugiau
Mažai debesys ne aukštis 2000 ft
Išsisklaidę debesys ne aukštis 12000 ft
Tikimybė 40% :
Laikinai
nuo 17 metu 19 UTC su 17 metu 22 UTC
Matomumas: 7000 m
Išsisklaidę debesys ne aukštis 1500 ft
Su prošvaistėmis ne aukštis 8000 ft
lietus

TAF: SKSP 171030Z 1712/1812 07007KT 9999 FEW020 SCT120 PROB40 TEMPO 1719/1722 7000 RA SCT015 BKN080 TX30/1719Z TN27/1811Z

Orai ataskaitas ir orų prognozės (METAR, TAF).

turimą stotys yra geltonos ir raudonos taškus žemėlapyje.

Perkelti pele per norėdami pamatyti stoties vardą.

Tada spustelėkite, norėdami matyti oro stebėjimo ir prognozės.

Norėdami pakeisti žemėlapį: spustelėkite ant žalios mygtukų su juodo kryžiaus žemyn,; žalią mygtuką su brūkšneliu, jei norite nutolinti; arba žalių rodyklių gretimoms žemėlapius.


METAR-TAF: